sensor_id;sensor_type;location;lat;lon;timestamp;temperature;humidity
68098;DHT22;54886;47.036;15.466;2023-07-31T00:01:27;19.74;77.24
68098;DHT22;54886;47.036;15.466;2023-07-31T00:03:53;19.65;77.84
68098;DHT22;54886;47.036;15.466;2023-07-31T00:06:18;19.54;77.88
68098;DHT22;54886;47.036;15.466;2023-07-31T00:12:05;19.41;78.40
68098;DHT22;54886;47.036;15.466;2023-07-31T00:14:31;19.46;77.71
68098;DHT22;54886;47.036;15.466;2023-07-31T00:20:18;19.58;76.09
68098;DHT22;54886;47.036;15.466;2023-07-31T00:26:06;19.61;75.28
68098;DHT22;54886;47.036;15.466;2023-07-31T00:31:53;19.58;76.16
68098;DHT22;54886;47.036;15.466;2023-07-31T00:37:40;19.62;74.74
68098;DHT22;54886;47.036;15.466;2023-07-31T00:40:07;19.67;74.49
68098;DHT22;54886;47.036;15.466;2023-07-31T00:42:32;19.59;76.02
68098;DHT22;54886;47.036;15.466;2023-07-31T00:48:20;19.48;77.44
68098;DHT22;54886;47.036;15.466;2023-07-31T00:50:45;19.50;74.76
68098;DHT22;54886;47.036;15.466;2023-07-31T00:53:11;19.44;75.46
68098;DHT22;54886;47.036;15.466;2023-07-31T00:55:36;19.50;75.63
68098;DHT22;54886;47.036;15.466;2023-07-31T00:58:02;19.43;77.23
68098;DHT22;54886;47.036;15.466;2023-07-31T01:00:28;19.41;74.24
68098;DHT22;54886;47.036;15.466;2023-07-31T01:02:53;19.41;76.66
68098;DHT22;54886;47.036;15.466;2023-07-31T01:08:48;19.24;77.43
68098;DHT22;54886;47.036;15.466;2023-07-31T01:11:21;19.16;78.15
68098;DHT22;54886;47.036;15.466;2023-07-31T01:13:49;19.23;75.01
68098;DHT22;54886;47.036;15.466;2023-07-31T01:16:14;19.27;76.28
68098;DHT22;54886;47.036;15.466;2023-07-31T01:18:40;19.27;75.38
68098;DHT22;54886;47.036;15.466;2023-07-31T01:26:34;19.10;75.46
68098;DHT22;54886;47.036;15.466;2023-07-31T01:29:13;19.07;77.63
68098;DHT22;54886;47.036;15.466;2023-07-31T01:31:45;19.07;77.79
68098;DHT22;54886;47.036;15.466;2023-07-31T01:34:11;19.10;75.94
68098;DHT22;54886;47.036;15.466;2023-07-31T01:36:38;19.13;74.53
68098;DHT22;54886;47.036;15.466;2023-07-31T01:39:04;19.16;74.42
68098;DHT22;54886;47.036;15.466;2023-07-31T01:41:29;19.16;76.23
68098;DHT22;54886;47.036;15.466;2023-07-31T01:43:55;19.09;75.66
68098;DHT22;54886;47.036;15.466;2023-07-31T01:49:42;18.93;78.30
68098;DHT22;54886;47.036;15.466;2023-07-31T01:55:30;18.86;78.12
68098;DHT22;54886;47.036;15.466;2023-07-31T01:57:55;18.93;76.26
68098;DHT22;54886;47.036;15.466;2023-07-31T02:03:42;18.96;76.75
68098;DHT22;54886;47.036;15.466;2023-07-31T02:09:30;18.98;75.65
68098;DHT22;54886;47.036;15.466;2023-07-31T02:15:17;18.84;76.40
68098;DHT22;54886;47.036;15.466;2023-07-31T02:17:43;18.79;75.59
68098;DHT22;54886;47.036;15.466;2023-07-31T02:20:09;18.79;77.62
68098;DHT22;54886;47.036;15.466;2023-07-31T02:22:35;18.59;79.42
68098;DHT22;54886;47.036;15.466;2023-07-31T02:25:01;18.52;79.60
68098;DHT22;54886;47.036;15.466;2023-07-31T02:30:47;18.64;78.79
68098;DHT22;54886;47.036;15.466;2023-07-31T02:33:15;18.51;79.93
68098;DHT22;54886;47.036;15.466;2023-07-31T02:35:41;18.48;78.56
68098;DHT22;54886;47.036;15.466;2023-07-31T02:38:07;18.54;78.19
68098;DHT22;54886;47.036;15.466;2023-07-31T02:40:33;18.50;79.60
68098;DHT22;54886;47.036;15.466;2023-07-31T02:46:20;18.40;79.71
68098;DHT22;54886;47.036;15.466;2023-07-31T02:48:49;18.36;79.98
68098;DHT22;54886;47.036;15.466;2023-07-31T02:51:15;18.34;80.00
68098;DHT22;54886;47.036;15.466;2023-07-31T02:53:40;18.37;79.89
68098;DHT22;54886;47.036;15.466;2023-07-31T02:56:06;18.41;77.31
68098;DHT22;54886;47.036;15.466;2023-07-31T02:58:32;18.43;79.66
68098;DHT22;54886;47.036;15.466;2023-07-31T03:00:58;18.37;80.21
68098;DHT22;54886;47.036;15.466;2023-07-31T03:06:45;18.41;76.58
68098;DHT22;54886;47.036;15.466;2023-07-31T03:09:11;18.37;79.71
68098;DHT22;54886;47.036;15.466;2023-07-31T03:11:37;18.41;78.84
68098;DHT22;54886;47.036;15.466;2023-07-31T03:14:02;18.40;76.63
68098;DHT22;54886;47.036;15.466;2023-07-31T03:16:28;18.41;77.41
68098;DHT22;54886;47.036;15.466;2023-07-31T03:18:54;18.41;78.49
68098;DHT22;54886;47.036;15.466;2023-07-31T03:21:19;18.41;76.71
68098;DHT22;54886;47.036;15.466;2023-07-31T03:27:07;18.43;76.84
68098;DHT22;54886;47.036;15.466;2023-07-31T03:29:32;18.33;77.44
68098;DHT22;54886;47.036;15.466;2023-07-31T03:31:58;18.41;76.01
68098;DHT22;54886;47.036;15.466;2023-07-31T03:37:46;18.41;76.67
68098;DHT22;54886;47.036;15.466;2023-07-31T03:40:12;18.41;75.91
68098;DHT22;54886;47.036;15.466;2023-07-31T03:42:38;18.38;77.56
68098;DHT22;54886;47.036;15.466;2023-07-31T03:45:04;18.30;77.12
68098;DHT22;54886;47.036;15.466;2023-07-31T03:47:29;18.29;78.41
68098;DHT22;54886;47.036;15.466;2023-07-31T03:49:55;18.20;77.45
68098;DHT22;54886;47.036;15.466;2023-07-31T03:52:20;18.16;79.31
68098;DHT22;54886;47.036;15.466;2023-07-31T03:58:08;18.14;79.00
68098;DHT22;54886;47.036;15.466;2023-07-31T04:00:34;18.16;78.93
68098;DHT22;54886;47.036;15.466;2023-07-31T04:02:59;18.10;80.51
68098;DHT22;54886;47.036;15.466;2023-07-31T04:05:25;18.07;80.57
68098;DHT22;54886;47.036;15.466;2023-07-31T04:07:51;18.07;78.00
68098;DHT22;54886;47.036;15.466;2023-07-31T04:10:16;18.13;77.88
68098;DHT22;54886;47.036;15.466;2023-07-31T04:12:42;18.13;79.88
68098;DHT22;54886;47.036;15.466;2023-07-31T04:18:29;18.13;81.79
68098;DHT22;54886;47.036;15.466;2023-07-31T04:20:56;18.13;80.06
68098;DHT22;54886;47.036;15.466;2023-07-31T04:23:24;18.02;82.99
68098;DHT22;54886;47.036;15.466;2023-07-31T04:25:49;18.09;81.15
68098;DHT22;54886;47.036;15.466;2023-07-31T04:28:15;18.09;81.62
68098;DHT22;54886;47.036;15.466;2023-07-31T04:34:03;17.97;83.61
68098;DHT22;54886;47.036;15.466;2023-07-31T04:36:29;18.04;83.39
68098;DHT22;54886;47.036;15.466;2023-07-31T04:38:54;18.12;82.88
68098;DHT22;54886;47.036;15.466;2023-07-31T04:41:20;18.26;82.09
68098;DHT22;54886;47.036;15.466;2023-07-31T04:43:46;18.17;83.47
68098;DHT22;54886;47.036;15.466;2023-07-31T04:46:12;18.23;82.80
68098;DHT22;54886;47.036;15.466;2023-07-31T04:48:38;18.29;81.83
68098;DHT22;54886;47.036;15.466;2023-07-31T04:54:25;18.38;81.01
68098;DHT22;54886;47.036;15.466;2023-07-31T04:56:51;18.43;81.06
68098;DHT22;54886;47.036;15.466;2023-07-31T04:59:18;18.41;81.61
68098;DHT22;54886;47.036;15.466;2023-07-31T05:01:43;18.48;81.25
68098;DHT22;54886;47.036;15.466;2023-07-31T05:04:15;18.52;80.59
68098;DHT22;54886;47.036;15.466;2023-07-31T05:10:03;18.51;81.61
68098;DHT22;54886;47.036;15.466;2023-07-31T05:12:28;18.59;81.00
68098;DHT22;54886;47.036;15.466;2023-07-31T05:18:16;18.65;80.98
68098;DHT22;54886;47.036;15.466;2023-07-31T05:24:04;18.73;80.67
68098;DHT22;54886;47.036;15.466;2023-07-31T05:29:51;18.79;79.09
68098;DHT22;54886;47.036;15.466;2023-07-31T05:35:38;18.92;79.78
68098;DHT22;54886;47.036;15.466;2023-07-31T05:38:04;18.96;79.39
68098;DHT22;54886;47.036;15.466;2023-07-31T05:40:32;18.99;78.50
68098;DHT22;54886;47.036;15.466;2023-07-31T05:42:58;19.03;79.44
68098;DHT22;54886;47.036;15.466;2023-07-31T05:45:25;19.07;78.35
68098;DHT22;54886;47.036;15.466;2023-07-31T05:47:50;19.12;79.78
68098;DHT22;54886;47.036;15.466;2023-07-31T05:50:16;19.14;80.01
68098;DHT22;54886;47.036;15.466;2023-07-31T05:56:03;19.24;80.12
68098;DHT22;54886;47.036;15.466;2023-07-31T05:58:29;19.30;80.47
68098;DHT22;54886;47.036;15.466;2023-07-31T06:00:55;19.34;80.52
68098;DHT22;54886;47.036;15.466;2023-07-31T06:03:20;19.38;79.45
68098;DHT22;54886;47.036;15.466;2023-07-31T06:05:46;19.40;79.01
68098;DHT22;54886;47.036;15.466;2023-07-31T06:11:33;19.55;78.97
68098;DHT22;54886;47.036;15.466;2023-07-31T06:13:59;19.64;77.35
68098;DHT22;54886;47.036;15.466;2023-07-31T06:16:25;19.69;77.52
68098;DHT22;54886;47.036;15.466;2023-07-31T06:18:50;19.72;77.72
68098;DHT22;54886;47.036;15.466;2023-07-31T06:21:16;19.81;77.67
68098;DHT22;54886;47.036;15.466;2023-07-31T06:23:42;19.81;77.24
68098;DHT22;54886;47.036;15.466;2023-07-31T06:26:08;19.85;77.72
68098;DHT22;54886;47.036;15.466;2023-07-31T06:31:55;20.00;77.42
68098;DHT22;54886;47.036;15.466;2023-07-31T06:34:21;20.03;77.53
68098;DHT22;54886;47.036;15.466;2023-07-31T06:36:46;20.06;77.04
68098;DHT22;54886;47.036;15.466;2023-07-31T06:42:34;20.16;76.73
68098;DHT22;54886;47.036;15.466;2023-07-31T06:45:00;20.17;76.64
68098;DHT22;54886;47.036;15.466;2023-07-31T06:47:26;20.22;76.09
68098;DHT22;54886;47.036;15.466;2023-07-31T06:49:51;20.23;75.87
68098;DHT22;54886;47.036;15.466;2023-07-31T06:52:17;20.24;75.73
68098;DHT22;54886;47.036;15.466;2023-07-31T06:54:42;20.29;74.75
68098;DHT22;54886;47.036;15.466;2023-07-31T07:00:30;20.24;74.10
68098;DHT22;54886;47.036;15.466;2023-07-31T07:06:36;20.48;75.28
68098;DHT22;54886;47.036;15.466;2023-07-31T07:12:24;20.64;75.00
68098;DHT22;54886;47.036;15.466;2023-07-31T07:18:11;20.81;75.08
68098;DHT22;54886;47.036;15.466;2023-07-31T07:23:58;20.88;72.75
68098;DHT22;54886;47.036;15.466;2023-07-31T07:26:24;20.86;71.86
68098;DHT22;54886;47.036;15.466;2023-07-31T07:32:11;20.95;71.02
68098;DHT22;54886;47.036;15.466;2023-07-31T07:37:58;20.99;71.60
68098;DHT22;54886;47.036;15.466;2023-07-31T07:43:45;21.06;71.37
68098;DHT22;54886;47.036;15.466;2023-07-31T07:46:11;21.06;70.90
68098;DHT22;54886;47.036;15.466;2023-07-31T07:48:37;21.13;72.85
68098;DHT22;54886;47.036;15.466;2023-07-31T07:51:03;21.18;72.23
68098;DHT22;54886;47.036;15.466;2023-07-31T07:53:28;21.26;71.44
68098;DHT22;54886;47.036;15.466;2023-07-31T07:59:16;21.39;70.54
68098;DHT22;54886;47.036;15.466;2023-07-31T08:05:03;21.48;69.78
68098;DHT22;54886;47.036;15.466;2023-07-31T08:07:28;21.53;68.88
68098;DHT22;54886;47.036;15.466;2023-07-31T08:09:54;21.55;70.28
68098;DHT22;54886;47.036;15.466;2023-07-31T08:12:20;21.64;69.23
68098;DHT22;54886;47.036;15.466;2023-07-31T08:14:45;21.73;71.02
68098;DHT22;54886;47.036;15.466;2023-07-31T08:20:33;21.88;71.49
68098;DHT22;54886;47.036;15.466;2023-07-31T08:22:58;21.92;69.86
68098;DHT22;54886;47.036;15.466;2023-07-31T08:25:24;21.94;70.37
68098;DHT22;54886;47.036;15.466;2023-07-31T08:27:50;21.99;70.31
68098;DHT22;54886;47.036;15.466;2023-07-31T08:30:18;22.12;70.46
68098;DHT22;54886;47.036;15.466;2023-07-31T08:32:43;22.12;70.03
68098;DHT22;54886;47.036;15.466;2023-07-31T08:38:31;22.24;70.55
68098;DHT22;54886;47.036;15.466;2023-07-31T08:44:18;22.29;68.75
68098;DHT22;54886;47.036;15.466;2023-07-31T08:50:07;22.32;67.63
68098;DHT22;54886;47.036;15.466;2023-07-31T08:55:56;22.40;69.61
68098;DHT22;54886;47.036;15.466;2023-07-31T08:58:24;22.47;68.99
68098;DHT22;54886;47.036;15.466;2023-07-31T09:00:51;22.53;68.84
68098;DHT22;54886;47.036;15.466;2023-07-31T09:06:38;22.74;68.75
68098;DHT22;54886;47.036;15.466;2023-07-31T09:09:04;22.74;67.64
68098;DHT22;54886;47.036;15.466;2023-07-31T09:11:30;22.81;66.93
68098;DHT22;54886;47.036;15.466;2023-07-31T09:13:57;22.84;68.38
68098;DHT22;54886;47.036;15.466;2023-07-31T09:16:29;22.84;68.06
68098;DHT22;54886;47.036;15.466;2023-07-31T09:18:58;22.84;67.65
68098;DHT22;54886;47.036;15.466;2023-07-31T09:21:24;22.88;67.04
68098;DHT22;54886;47.036;15.466;2023-07-31T09:23:51;22.95;67.86
68098;DHT22;54886;47.036;15.466;2023-07-31T09:26:32;22.99;67.05
68098;DHT22;54886;47.036;15.466;2023-07-31T09:28:59;23.05;66.34
68098;DHT22;54886;47.036;15.466;2023-07-31T09:34:46;23.11;66.08
68098;DHT22;54886;47.036;15.466;2023-07-31T09:40:48;23.27;65.25
68098;DHT22;54886;47.036;15.466;2023-07-31T09:46:36;23.30;65.14
68098;DHT22;54886;47.036;15.466;2023-07-31T09:52:26;23.42;65.83
68098;DHT22;54886;47.036;15.466;2023-07-31T09:54:55;23.43;64.74
68098;DHT22;54886;47.036;15.466;2023-07-31T09:57:22;23.43;65.51
68098;DHT22;54886;47.036;15.466;2023-07-31T09:59:48;23.45;65.30
68098;DHT22;54886;47.036;15.466;2023-07-31T10:02:22;23.53;65.37
68098;DHT22;54886;47.036;15.466;2023-07-31T10:04:51;23.54;65.06
68098;DHT22;54886;47.036;15.466;2023-07-31T10:07:25;23.58;64.36
68098;DHT22;54886;47.036;15.466;2023-07-31T10:09:51;23.64;64.51
68098;DHT22;54886;47.036;15.466;2023-07-31T10:12:22;23.68;65.86
68098;DHT22;54886;47.036;15.466;2023-07-31T10:14:52;23.64;63.89
68098;DHT22;54886;47.036;15.466;2023-07-31T10:17:24;23.65;65.73
68098;DHT22;54886;47.036;15.466;2023-07-31T10:19:50;23.75;66.02
68098;DHT22;54886;47.036;15.466;2023-07-31T10:22:16;23.77;65.59
68098;DHT22;54886;47.036;15.466;2023-07-31T10:28:05;23.91;64.83
68098;DHT22;54886;47.036;15.466;2023-07-31T10:30:33;23.95;66.22
68098;DHT22;54886;47.036;15.466;2023-07-31T10:33:00;24.05;65.67
68098;DHT22;54886;47.036;15.466;2023-07-31T10:38:51;24.16;64.66
68098;DHT22;54886;47.036;15.466;2023-07-31T10:41:16;24.18;63.88
68098;DHT22;54886;47.036;15.466;2023-07-31T10:47:03;24.25;64.85
68098;DHT22;54886;47.036;15.466;2023-07-31T10:52:53;24.28;64.77
68098;DHT22;54886;47.036;15.466;2023-07-31T10:58:43;24.44;64.08
68098;DHT22;54886;47.036;15.466;2023-07-31T11:01:09;24.49;62.96
68098;DHT22;54886;47.036;15.466;2023-07-31T11:03:41;24.47;62.50
68098;DHT22;54886;47.036;15.466;2023-07-31T11:09:31;24.54;63.94
68098;DHT22;54886;47.036;15.466;2023-07-31T11:12:00;24.57;63.27
68098;DHT22;54886;47.036;15.466;2023-07-31T11:14:26;24.64;64.25
68098;DHT22;54886;47.036;15.466;2023-07-31T11:16:51;24.73;64.85
68098;DHT22;54886;47.036;15.466;2023-07-31T11:19:24;24.74;63.88
68098;DHT22;54886;47.036;15.466;2023-07-31T11:21:51;24.81;63.54
68098;DHT22;54886;47.036;15.466;2023-07-31T11:24:18;24.83;62.15
68098;DHT22;54886;47.036;15.466;2023-07-31T11:30:06;24.96;65.12
68098;DHT22;54886;47.036;15.466;2023-07-31T11:32:32;24.95;60.33
68098;DHT22;54886;47.036;15.466;2023-07-31T11:34:58;24.98;62.65
68098;DHT22;54886;47.036;15.466;2023-07-31T11:37:23;25.02;63.24
68098;DHT22;54886;47.036;15.466;2023-07-31T11:40:02;25.11;64.43
68098;DHT22;54886;47.036;15.466;2023-07-31T11:45:55;25.26;61.95
68098;DHT22;54886;47.036;15.466;2023-07-31T11:48:25;25.28;62.29
68098;DHT22;54886;47.036;15.466;2023-07-31T11:54:16;25.42;61.86
68098;DHT22;54886;47.036;15.466;2023-07-31T12:00:04;25.37;62.36
68098;DHT22;54886;47.036;15.466;2023-07-31T12:05:33;25.46;61.90
68098;DHT22;54886;47.036;15.466;2023-07-31T12:07:59;25.56;62.08
68098;DHT22;54886;47.036;15.466;2023-07-31T12:10:32;25.62;61.59
68098;DHT22;54886;47.036;15.466;2023-07-31T12:16:19;25.67;60.25
68098;DHT22;54886;47.036;15.466;2023-07-31T12:18:45;25.69;61.49
68098;DHT22;54886;47.036;15.466;2023-07-31T12:21:14;25.69;61.95
68098;DHT22;54886;47.036;15.466;2023-07-31T12:23:40;25.75;61.10
68098;DHT22;54886;47.036;15.466;2023-07-31T12:26:12;25.84;61.62
68098;DHT22;54886;47.036;15.466;2023-07-31T12:28:44;25.91;61.97
68098;DHT22;54886;47.036;15.466;2023-07-31T12:31:12;25.94;61.42
68098;DHT22;54886;47.036;15.466;2023-07-31T12:33:39;25.81;60.33
68098;DHT22;54886;47.036;15.466;2023-07-31T12:36:13;25.84;60.79
68098;DHT22;54886;47.036;15.466;2023-07-31T12:38:39;25.80;60.66
68098;DHT22;54886;47.036;15.466;2023-07-31T12:41:05;25.75;60.20
68098;DHT22;54886;47.036;15.466;2023-07-31T12:46:53;25.77;61.98
68098;DHT22;54886;47.036;15.466;2023-07-31T12:49:19;25.67;60.90
68098;DHT22;54886;47.036;15.466;2023-07-31T12:51:44;25.64;60.92
68098;DHT22;54886;47.036;15.466;2023-07-31T12:54:10;25.66;61.10
68098;DHT22;54886;47.036;15.466;2023-07-31T12:56:36;25.66;60.19
68098;DHT22;54886;47.036;15.466;2023-07-31T13:02:23;25.78;60.68
68098;DHT22;54886;47.036;15.466;2023-07-31T13:04:49;25.83;59.71
68098;DHT22;54886;47.036;15.466;2023-07-31T13:07:15;25.81;61.29
68098;DHT22;54886;47.036;15.466;2023-07-31T13:09:41;25.91;61.51
68098;DHT22;54886;47.036;15.466;2023-07-31T13:12:07;26.04;61.28
68098;DHT22;54886;47.036;15.466;2023-07-31T13:14:33;26.12;60.27
68098;DHT22;54886;47.036;15.466;2023-07-31T13:16:58;26.21;60.51
68098;DHT22;54886;47.036;15.466;2023-07-31T13:22:45;26.37;59.76
68098;DHT22;54886;47.036;15.466;2023-07-31T13:25:11;26.40;59.23
68098;DHT22;54886;47.036;15.466;2023-07-31T13:27:37;26.46;60.14
68098;DHT22;54886;47.036;15.466;2023-07-31T13:30:03;26.45;58.76
68098;DHT22;54886;47.036;15.466;2023-07-31T13:32:29;26.45;58.24
68098;DHT22;54886;47.036;15.466;2023-07-31T13:34:55;26.39;59.07
68098;DHT22;54886;47.036;15.466;2023-07-31T13:37:20;26.31;59.29
68098;DHT22;54886;47.036;15.466;2023-07-31T13:46:36;26.05;59.24
68098;DHT22;54886;47.036;15.466;2023-07-31T13:52:23;26.08;60.13
68098;DHT22;54886;47.036;15.466;2023-07-31T13:58:10;26.22;58.83
68098;DHT22;54886;47.036;15.466;2023-07-31T14:03:57;26.35;59.11
68098;DHT22;54886;47.036;15.466;2023-07-31T14:06:24;26.40;59.05
68098;DHT22;54886;47.036;15.466;2023-07-31T14:08:49;26.43;58.18
68098;DHT22;54886;47.036;15.466;2023-07-31T14:11:15;26.40;57.19
68098;DHT22;54886;47.036;15.466;2023-07-31T14:13:41;26.40;58.60
68098;DHT22;54886;47.036;15.466;2023-07-31T14:16:06;26.49;58.94
68098;DHT22;54886;47.036;15.466;2023-07-31T14:18:32;26.52;58.51
68098;DHT22;54886;47.036;15.466;2023-07-31T14:24:19;26.55;59.89
68098;DHT22;54886;47.036;15.466;2023-07-31T14:26:45;26.49;59.20
68098;DHT22;54886;47.036;15.466;2023-07-31T14:29:10;26.45;59.58
68098;DHT22;54886;47.036;15.466;2023-07-31T14:31:36;26.35;59.08
68098;DHT22;54886;47.036;15.466;2023-07-31T14:34:02;26.39;58.82
68098;DHT22;54886;47.036;15.466;2023-07-31T14:39:49;26.33;57.04
68098;DHT22;54886;47.036;15.466;2023-07-31T14:42:16;26.36;57.67
68098;DHT22;54886;47.036;15.466;2023-07-31T14:44:43;26.35;58.02
68098;DHT22;54886;47.036;15.466;2023-07-31T14:47:09;26.31;58.10
68098;DHT22;54886;47.036;15.466;2023-07-31T14:49:34;26.24;58.86
68098;DHT22;54886;47.036;15.466;2023-07-31T14:52:00;26.19;58.56
68098;DHT22;54886;47.036;15.466;2023-07-31T14:54:26;26.18;57.58
68098;DHT22;54886;47.036;15.466;2023-07-31T15:00:13;26.14;57.88
68098;DHT22;54886;47.036;15.466;2023-07-31T15:02:40;26.14;58.79
68098;DHT22;54886;47.036;15.466;2023-07-31T15:08:27;26.15;58.32
68098;DHT22;54886;47.036;15.466;2023-07-31T15:14:14;26.09;57.50
68098;DHT22;54886;47.036;15.466;2023-07-31T15:20:01;26.04;57.66
68098;DHT22;54886;47.036;15.466;2023-07-31T15:25:49;26.21;57.46
68098;DHT22;54886;47.036;15.466;2023-07-31T15:28:15;26.25;57.33
68098;DHT22;54886;47.036;15.466;2023-07-31T15:34:02;26.25;58.55
68098;DHT22;54886;47.036;15.466;2023-07-31T15:39:49;26.19;58.99
68098;DHT22;54886;47.036;15.466;2023-07-31T15:45:55;26.22;58.52
68098;DHT22;54886;47.036;15.466;2023-07-31T15:48:20;26.22;58.49
68098;DHT22;54886;47.036;15.466;2023-07-31T15:50:46;26.19;58.14
68098;DHT22;54886;47.036;15.466;2023-07-31T15:56:34;26.21;57.77
68098;DHT22;54886;47.036;15.466;2023-07-31T15:58:59;26.17;58.09
68098;DHT22;54886;47.036;15.466;2023-07-31T16:01:26;26.21;59.25
68098;DHT22;54886;47.036;15.466;2023-07-31T16:03:52;26.18;58.23
68098;DHT22;54886;47.036;15.466;2023-07-31T16:06:18;26.12;58.45
68098;DHT22;54886;47.036;15.466;2023-07-31T16:12:05;26.01;59.68
68098;DHT22;54886;47.036;15.466;2023-07-31T16:14:32;26.02;60.04
68098;DHT22;54886;47.036;15.466;2023-07-31T16:16:57;25.97;59.42
68098;DHT22;54886;47.036;15.466;2023-07-31T16:22:44;25.95;59.11
68098;DHT22;54886;47.036;15.466;2023-07-31T16:25:10;25.98;59.23
68098;DHT22;54886;47.036;15.466;2023-07-31T16:27:36;25.95;59.74
68098;DHT22;54886;47.036;15.466;2023-07-31T16:30:02;25.97;59.98
68098;DHT22;54886;47.036;15.466;2023-07-31T16:32:28;25.97;59.48
68098;DHT22;54886;47.036;15.466;2023-07-31T16:34:54;25.91;60.53
68098;DHT22;54886;47.036;15.466;2023-07-31T16:37:20;25.95;60.41
68098;DHT22;54886;47.036;15.466;2023-07-31T16:43:07;26.02;60.21
68098;DHT22;54886;47.036;15.466;2023-07-31T16:45:33;26.05;60.45
68098;DHT22;54886;47.036;15.466;2023-07-31T16:48:00;26.00;60.27
68098;DHT22;54886;47.036;15.466;2023-07-31T16:50:26;26.00;60.61
68098;DHT22;54886;47.036;15.466;2023-07-31T16:52:51;25.97;59.72
68098;DHT22;54886;47.036;15.466;2023-07-31T16:58:38;25.94;59.97
68098;DHT22;54886;47.036;15.466;2023-07-31T17:01:04;25.90;60.08
68098;DHT22;54886;47.036;15.466;2023-07-31T17:03:30;25.88;60.28
68098;DHT22;54886;47.036;15.466;2023-07-31T17:05:56;25.87;59.92
68098;DHT22;54886;47.036;15.466;2023-07-31T17:08:21;25.87;60.19
68098;DHT22;54886;47.036;15.466;2023-07-31T17:10:47;25.83;60.19
68098;DHT22;54886;47.036;15.466;2023-07-31T17:13:13;25.81;60.05
68098;DHT22;54886;47.036;15.466;2023-07-31T17:19:01;25.77;59.24
68098;DHT22;54886;47.036;15.466;2023-07-31T17:24:48;25.77;59.70
68098;DHT22;54886;47.036;15.466;2023-07-31T17:27:14;25.75;59.33
68098;DHT22;54886;47.036;15.466;2023-07-31T17:33:01;25.64;60.04
68098;DHT22;54886;47.036;15.466;2023-07-31T17:38:48;25.60;60.65
68098;DHT22;54886;47.036;15.466;2023-07-31T17:44:36;25.50;60.41
68098;DHT22;54886;47.036;15.466;2023-07-31T17:47:01;25.46;61.08
68098;DHT22;54886;47.036;15.466;2023-07-31T17:49:27;25.37;60.66
68098;DHT22;54886;47.036;15.466;2023-07-31T17:51:53;25.35;61.34
68098;DHT22;54886;47.036;15.466;2023-07-31T17:54:19;25.33;61.60
68098;DHT22;54886;47.036;15.466;2023-07-31T17:56:44;25.26;62.43
68098;DHT22;54886;47.036;15.466;2023-07-31T17:59:10;25.18;62.35
68098;DHT22;54886;47.036;15.466;2023-07-31T18:04:58;25.16;62.20
68098;DHT22;54886;47.036;15.466;2023-07-31T18:07:23;25.16;63.08
68098;DHT22;54886;47.036;15.466;2023-07-31T18:09:49;25.07;63.14
68098;DHT22;54886;47.036;15.466;2023-07-31T18:15:36;25.05;63.90
68098;DHT22;54886;47.036;15.466;2023-07-31T18:18:03;24.91;63.18
68098;DHT22;54886;47.036;15.466;2023-07-31T18:23:50;24.92;64.09
68098;DHT22;54886;47.036;15.466;2023-07-31T18:29:37;24.88;64.28
68098;DHT22;54886;47.036;15.466;2023-07-31T18:35:25;24.78;64.26
68098;DHT22;54886;47.036;15.466;2023-07-31T18:41:12;24.74;64.82
68098;DHT22;54886;47.036;15.466;2023-07-31T18:43:38;24.74;64.83
68098;DHT22;54886;47.036;15.466;2023-07-31T18:46:04;24.73;64.95
68098;DHT22;54886;47.036;15.466;2023-07-31T18:48:29;24.63;65.83
68098;DHT22;54886;47.036;15.466;2023-07-31T18:50:56;24.60;65.58
68098;DHT22;54886;47.036;15.466;2023-07-31T18:53:23;24.57;65.68
68098;DHT22;54886;47.036;15.466;2023-07-31T18:55:48;24.56;65.43
68098;DHT22;54886;47.036;15.466;2023-07-31T19:01:35;24.46;65.73
68098;DHT22;54886;47.036;15.466;2023-07-31T19:04:01;24.47;65.76
68098;DHT22;54886;47.036;15.466;2023-07-31T19:06:30;24.46;66.02
68098;DHT22;54886;47.036;15.466;2023-07-31T19:08:55;24.37;66.35
68098;DHT22;54886;47.036;15.466;2023-07-31T19:11:21;24.39;66.14
68098;DHT22;54886;47.036;15.466;2023-07-31T19:13:46;24.33;66.47
68098;DHT22;54886;47.036;15.466;2023-07-31T19:16:12;24.25;67.12
68098;DHT22;54886;47.036;15.466;2023-07-31T19:22:00;24.13;67.16
68098;DHT22;54886;47.036;15.466;2023-07-31T19:24:27;24.12;67.03
68098;DHT22;54886;47.036;15.466;2023-07-31T19:26:53;24.12;67.11
68098;DHT22;54886;47.036;15.466;2023-07-31T19:29:19;24.04;67.73
68098;DHT22;54886;47.036;15.466;2023-07-31T19:31:45;24.04;67.34
68098;DHT22;54886;47.036;15.466;2023-07-31T19:37:32;23.97;67.11
68098;DHT22;54886;47.036;15.466;2023-07-31T19:39:57;23.89;67.51
68098;DHT22;54886;47.036;15.466;2023-07-31T19:42:23;23.86;67.84
68098;DHT22;54886;47.036;15.466;2023-07-31T19:44:49;23.85;67.77
68098;DHT22;54886;47.036;15.466;2023-07-31T19:47:14;23.85;67.94
68098;DHT22;54886;47.036;15.466;2023-07-31T19:53:02;23.74;68.24
68098;DHT22;54886;47.036;15.466;2023-07-31T19:55:28;23.65;68.31
68098;DHT22;54886;47.036;15.466;2023-07-31T19:57:55;23.54;68.62
68098;DHT22;54886;47.036;15.466;2023-07-31T20:00:21;23.60;68.64
68098;DHT22;54886;47.036;15.466;2023-07-31T20:02:46;23.58;68.38
68098;DHT22;54886;47.036;15.466;2023-07-31T20:05:12;23.64;67.96
68098;DHT22;54886;47.036;15.466;2023-07-31T20:07:38;23.60;68.44
68098;DHT22;54886;47.036;15.466;2023-07-31T20:13:25;23.51;68.52
68098;DHT22;54886;47.036;15.466;2023-07-31T20:15:51;23.51;68.35
68098;DHT22;54886;47.036;15.466;2023-07-31T20:18:16;23.42;68.79
68098;DHT22;54886;47.036;15.466;2023-07-31T20:20:42;23.36;69.14
68098;DHT22;54886;47.036;15.466;2023-07-31T20:23:08;23.30;69.27
68098;DHT22;54886;47.036;15.466;2023-07-31T20:25:33;23.26;69.30
68098;DHT22;54886;47.036;15.466;2023-07-31T20:28:01;23.24;69.52
68098;DHT22;54886;47.036;15.466;2023-07-31T20:33:48;23.16;69.40
68098;DHT22;54886;47.036;15.466;2023-07-31T20:36:14;23.18;69.37
68098;DHT22;54886;47.036;15.466;2023-07-31T20:38:40;23.13;69.46
68098;DHT22;54886;47.036;15.466;2023-07-31T20:41:06;23.09;69.81
68098;DHT22;54886;47.036;15.466;2023-07-31T20:43:31;23.08;69.48
68098;DHT22;54886;47.036;15.466;2023-07-31T20:52:46;23.06;69.32
68098;DHT22;54886;47.036;15.466;2023-07-31T20:58:33;22.91;70.32
68098;DHT22;54886;47.036;15.466;2023-07-31T21:04:20;22.88;69.93
68098;DHT22;54886;47.036;15.466;2023-07-31T21:10:07;22.87;70.34
68098;DHT22;54886;47.036;15.466;2023-07-31T21:12:34;22.84;70.35
68098;DHT22;54886;47.036;15.466;2023-07-31T21:14:59;22.83;70.07